createdAt,value
2022-10-08T00:02:09.540Z,14.40
2022-10-08T00:04:38.035Z,14.40
2022-10-08T00:07:07.600Z,14.40
2022-10-08T00:09:37.463Z,14.40
2022-10-08T00:12:06.129Z,14.50
2022-10-08T00:14:34.582Z,14.50
2022-10-08T00:17:03.055Z,14.60
2022-10-08T00:19:31.574Z,14.60
2022-10-08T00:22:00.036Z,14.50
2022-10-08T00:24:28.731Z,14.50
2022-10-08T00:27:00.352Z,14.40
2022-10-08T00:29:28.879Z,14.40
2022-10-08T00:31:57.351Z,14.30
2022-10-08T00:34:26.059Z,14.30
2022-10-08T00:36:56.515Z,14.20
2022-10-08T00:39:26.027Z,14.10
2022-10-08T00:41:56.031Z,14.10
2022-10-08T00:44:55.215Z,14.00
2022-10-08T00:47:40.731Z,14.10
2022-10-08T00:50:13.459Z,14.10
2022-10-08T00:52:45.295Z,14.00
2022-10-08T00:55:16.687Z,14.00
2022-10-08T00:57:45.311Z,13.90
2022-10-08T01:00:18.187Z,13.80
2022-10-08T01:02:46.916Z,13.80
2022-10-08T01:05:19.651Z,14.00
2022-10-08T01:07:52.395Z,14.10
2022-10-08T01:10:28.823Z,14.10
2022-10-08T01:13:11.250Z,14.10
2022-10-08T01:15:46.064Z,14.10
2022-10-08T01:18:20.635Z,14.10
2022-10-08T01:20:55.588Z,14.10
2022-10-08T01:24:00.441Z,14.10
2022-10-08T01:26:46.348Z,14.10
2022-10-08T01:29:19.706Z,14.00
2022-10-08T01:31:49.707Z,14.00
2022-10-08T01:34:21.694Z,14.00
2022-10-08T01:36:52.087Z,14.00
2022-10-08T01:39:22.530Z,13.90
2022-10-08T01:41:52.843Z,13.90
2022-10-08T01:44:25.336Z,13.80
2022-10-08T01:46:56.496Z,13.60
2022-10-08T01:49:26.730Z,13.60
2022-10-08T01:51:57.203Z,13.60
2022-10-08T01:54:27.821Z,13.60
2022-10-08T01:56:58.118Z,13.60
2022-10-08T01:59:31.211Z,13.50
2022-10-08T02:02:05.026Z,13.50
2022-10-08T02:04:37.587Z,13.50
2022-10-08T02:07:09.353Z,13.50
2022-10-08T02:09:39.938Z,13.50
2022-10-08T02:12:09.159Z,13.50
2022-10-08T02:14:40.555Z,13.50
2022-10-08T02:17:17.787Z,13.50
2022-10-08T02:19:54.543Z,13.50
2022-10-08T02:22:26.755Z,13.40
2022-10-08T02:25:00.175Z,13.40
2022-10-08T02:27:33.317Z,13.40
2022-10-08T02:30:09.659Z,13.20
2022-10-08T02:32:42.048Z,13.10
2022-10-08T02:35:15.081Z,13.20
2022-10-08T02:37:47.059Z,13.20
2022-10-08T02:40:17.687Z,13.20
2022-10-08T02:42:52.591Z,13.20
2022-10-08T02:45:25.159Z,13.30
2022-10-08T02:47:56.882Z,13.20
2022-10-08T02:50:27.102Z,13.20
2022-10-08T02:52:56.127Z,13.20
2022-10-08T02:55:31.464Z,13.20
2022-10-08T02:58:03.028Z,13.30
2022-10-08T03:00:36.115Z,13.40
2022-10-08T03:03:16.314Z,13.30
2022-10-08T03:05:45.477Z,13.40
2022-10-08T03:08:15.432Z,13.40
2022-10-08T03:10:45.292Z,13.40
2022-10-08T03:13:14.325Z,13.40
2022-10-08T03:15:44.694Z,13.40
2022-10-08T03:18:13.799Z,13.50
2022-10-08T03:20:48.119Z,13.50
2022-10-08T03:23:19.094Z,13.50
2022-10-08T03:25:47.580Z,13.50
2022-10-08T03:28:16.045Z,13.40
2022-10-08T03:30:47.557Z,13.40
2022-10-08T03:33:16.677Z,13.50
2022-10-08T03:35:46.557Z,13.50
2022-10-08T03:38:16.533Z,13.50
2022-10-08T03:40:45.632Z,13.60
2022-10-08T03:43:14.035Z,13.60
2022-10-08T03:45:52.131Z,13.60
2022-10-08T03:48:21.508Z,13.60
2022-10-08T03:50:53.914Z,13.60
2022-10-08T03:53:22.641Z,13.60
2022-10-08T03:55:51.345Z,13.60
2022-10-08T03:58:19.964Z,13.60
2022-10-08T04:00:59.061Z,13.60
2022-10-08T04:03:28.298Z,13.70
2022-10-08T04:05:57.030Z,13.70
2022-10-08T04:08:25.848Z,13.60
2022-10-08T04:10:54.457Z,13.60
2022-10-08T04:13:23.389Z,13.60
2022-10-08T04:15:51.863Z,13.70
2022-10-08T04:18:21.708Z,13.70
2022-10-08T04:20:50.182Z,13.70
2022-10-08T04:23:18.579Z,13.70
2022-10-08T04:25:51.899Z,13.70
2022-10-08T04:28:20.964Z,13.70
2022-10-08T04:30:59.911Z,13.70
2022-10-08T04:33:31.236Z,13.70
2022-10-08T04:36:00.469Z,13.70
2022-10-08T04:38:29.516Z,13.80
2022-10-08T04:41:05.463Z,13.80
2022-10-08T04:43:34.827Z,13.70
2022-10-08T04:46:03.563Z,13.70
2022-10-08T04:48:33.547Z,13.80
2022-10-08T04:51:06.860Z,13.90
2022-10-08T04:53:37.989Z,14.00
2022-10-08T04:56:12.003Z,14.10
2022-10-08T04:58:40.569Z,14.10
2022-10-08T05:01:10.796Z,14.10
2022-10-08T05:03:42.039Z,14.20
2022-10-08T05:06:11.160Z,14.20
2022-10-08T05:08:39.723Z,14.30
2022-10-08T05:11:08.945Z,14.30
2022-10-08T05:13:37.776Z,14.40
2022-10-08T05:16:07.051Z,14.40
2022-10-08T05:18:37.089Z,14.40
2022-10-08T05:21:08.743Z,14.40
2022-10-08T05:23:38.035Z,14.40
2022-10-08T05:26:14.064Z,14.30
2022-10-08T05:28:43.077Z,14.10
2022-10-08T05:31:11.629Z,13.90
2022-10-08T05:33:40.275Z,13.70
2022-10-08T05:36:16.455Z,13.60
2022-10-08T05:38:44.978Z,13.60
2022-10-08T05:41:15.041Z,13.50
2022-10-08T05:43:43.855Z,13.40
2022-10-08T05:46:12.963Z,13.30
2022-10-08T05:48:42.035Z,13.20
2022-10-08T05:51:14.227Z,13.20
2022-10-08T05:53:44.365Z,13.20
2022-10-08T05:56:14.011Z,13.20
2022-10-08T05:58:43.290Z,13.20
2022-10-08T06:01:14.892Z,13.20
2022-10-08T06:03:43.654Z,13.20
2022-10-08T06:06:13.688Z,13.10
2022-10-08T06:08:42.407Z,13.10
2022-10-08T06:11:10.914Z,13.10
2022-10-08T06:13:39.449Z,13.20
2022-10-08T06:16:10.000Z,13.10
2022-10-08T06:18:40.350Z,13.20
2022-10-08T06:21:10.174Z,13.20
2022-10-08T06:23:40.841Z,13.30
2022-10-08T06:26:10.694Z,13.30
2022-10-08T06:28:40.419Z,13.40
2022-10-08T06:31:09.994Z,13.40
2022-10-08T06:33:39.148Z,13.50
2022-10-08T06:36:08.954Z,13.40
2022-10-08T06:38:37.370Z,13.30
2022-10-08T06:41:07.331Z,13.20
2022-10-08T06:43:36.304Z,13.20
2022-10-08T06:46:05.685Z,13.20
2022-10-08T06:48:34.379Z,13.20
2022-10-08T06:51:04.530Z,13.30
2022-10-08T06:53:33.267Z,13.40
2022-10-08T06:56:04.594Z,13.50
2022-10-08T06:58:36.201Z,13.60
2022-10-08T07:01:06.594Z,13.70
2022-10-08T07:03:35.573Z,13.70
2022-10-08T07:06:05.393Z,13.80
2022-10-08T07:08:34.055Z,13.90
2022-10-08T07:11:06.065Z,14.00
2022-10-08T07:13:36.634Z,14.10
2022-10-08T07:16:07.381Z,14.30
2022-10-08T07:18:36.934Z,14.50
2022-10-08T07:21:05.962Z,14.70
2022-10-08T07:23:34.752Z,14.90
2022-10-08T07:26:05.444Z,15.10
2022-10-08T07:28:37.573Z,15.30
2022-10-08T07:31:06.596Z,15.60
2022-10-08T07:33:35.220Z,15.70
2022-10-08T07:36:08.474Z,15.80
2022-10-08T07:38:36.902Z,16.00
2022-10-08T07:41:05.622Z,16.10
2022-10-08T07:43:34.070Z,16.30
2022-10-08T07:46:04.065Z,16.40
2022-10-08T07:48:34.241Z,16.50
2022-10-08T07:51:10.803Z,16.60
2022-10-08T07:53:39.911Z,16.60
2022-10-08T07:56:09.953Z,16.80
2022-10-08T07:58:38.749Z,16.90
2022-10-08T08:01:11.006Z,17.00
2022-10-08T08:03:39.591Z,17.20
2022-10-08T08:06:10.329Z,17.30
2022-10-08T08:08:39.981Z,17.40
2022-10-08T08:11:09.683Z,17.50
2022-10-08T08:13:41.106Z,17.60
2022-10-08T08:16:12.769Z,17.70
2022-10-08T08:18:43.355Z,17.80
2022-10-08T08:21:13.699Z,17.80
2022-10-08T08:23:43.908Z,17.80
2022-10-08T08:26:14.860Z,17.90
2022-10-08T08:28:43.907Z,17.80
2022-10-08T08:31:16.683Z,17.90
2022-10-08T08:33:50.874Z,18.00
2022-10-08T08:36:19.574Z,18.00
2022-10-08T08:38:48.011Z,18.00
2022-10-08T08:41:24.763Z,17.90
2022-10-08T08:43:59.038Z,18.00
2022-10-08T08:46:30.532Z,18.00
2022-10-08T08:49:01.107Z,18.10
2022-10-08T08:51:29.515Z,18.10
2022-10-08T08:53:58.339Z,18.20
2022-10-08T08:56:26.759Z,18.20
2022-10-08T08:58:59.471Z,18.30
2022-10-08T09:01:33.537Z,18.30
2022-10-08T09:04:06.603Z,18.40
2022-10-08T09:06:35.671Z,18.40
2022-10-08T09:09:08.901Z,18.40
2022-10-08T09:11:39.474Z,18.50
2022-10-08T09:14:20.676Z,18.50
2022-10-08T09:16:50.700Z,18.60
2022-10-08T09:19:19.255Z,18.60
2022-10-08T09:21:47.718Z,18.70
2022-10-08T09:24:16.668Z,18.70
2022-10-08T09:26:45.185Z,18.70
2022-10-08T09:29:32.397Z,18.70
2022-10-08T09:32:02.304Z,18.70
2022-10-08T09:34:30.762Z,18.60
2022-10-08T09:37:05.125Z,18.60
2022-10-08T09:39:34.941Z,18.60
2022-10-08T09:42:15.100Z,18.60
2022-10-08T09:44:44.541Z,18.60
2022-10-08T09:47:15.438Z,18.80
2022-10-08T09:49:44.924Z,18.80
2022-10-08T09:52:17.552Z,18.80
2022-10-08T09:54:48.930Z,18.80
2022-10-08T09:57:18.742Z,18.80
2022-10-08T09:59:52.981Z,18.90
2022-10-08T10:02:31.515Z,18.90
2022-10-08T10:05:01.096Z,19.00
2022-10-08T10:07:40.980Z,19.10
2022-10-08T10:10:19.451Z,19.20
2022-10-08T10:12:50.286Z,19.30
2022-10-08T10:15:22.076Z,19.40
2022-10-08T10:17:53.499Z,19.40
2022-10-08T10:20:24.906Z,19.50
2022-10-08T10:22:57.310Z,19.50
2022-10-08T10:25:32.015Z,19.60
2022-10-08T10:28:02.991Z,19.70
2022-10-08T10:30:36.036Z,19.70
2022-10-08T10:33:10.785Z,19.80
2022-10-08T10:35:45.727Z,19.70
2022-10-08T10:38:17.450Z,19.60
2022-10-08T10:40:48.379Z,19.70
2022-10-08T10:43:29.078Z,19.70
2022-10-08T10:46:01.702Z,19.80
2022-10-08T10:48:32.073Z,19.80
2022-10-08T10:51:19.287Z,19.80
2022-10-08T10:53:57.650Z,19.90
2022-10-08T10:56:28.056Z,19.90
2022-10-08T10:59:18.180Z,20.00
2022-10-08T11:01:51.602Z,20.10
2022-10-08T11:04:27.789Z,20.10
2022-10-08T11:07:02.994Z,20.20
2022-10-08T11:09:39.047Z,20.20
2022-10-08T11:12:27.162Z,20.20
2022-10-08T11:15:02.010Z,20.30
2022-10-08T11:17:40.364Z,20.40
2022-10-08T11:20:27.176Z,20.40
2022-10-08T11:23:00.582Z,20.40
2022-10-08T11:25:44.856Z,20.30
2022-10-08T11:28:30.253Z,20.40
2022-10-08T11:31:07.474Z,20.40
2022-10-08T11:33:36.720Z,20.50
2022-10-08T11:36:20.825Z,20.60
2022-10-08T11:38:52.178Z,20.70
2022-10-08T11:41:25.300Z,20.80
2022-10-08T11:43:55.839Z,20.90
2022-10-08T11:46:30.112Z,20.90
2022-10-08T11:49:00.779Z,20.90
2022-10-08T11:51:36.120Z,20.90
2022-10-08T11:54:13.902Z,20.80
2022-10-08T11:56:44.726Z,20.80
2022-10-08T11:59:29.960Z,20.90
2022-10-08T12:02:00.090Z,21.00
2022-10-08T12:04:31.241Z,20.90
2022-10-08T12:07:07.926Z,21.00
2022-10-08T12:10:09.263Z,21.00
2022-10-08T12:13:01.981Z,21.00
2022-10-08T12:16:09.995Z,21.10
2022-10-08T12:18:47.472Z,21.20
2022-10-08T12:21:52.649Z,21.30
2022-10-08T12:24:54.337Z,21.30
2022-10-08T12:27:29.534Z,21.40
2022-10-08T12:30:00.554Z,21.40
2022-10-08T12:32:30.639Z,21.40
2022-10-08T12:34:59.128Z,21.40
2022-10-08T12:37:44.964Z,21.30
2022-10-08T12:40:27.374Z,21.40
2022-10-08T12:43:06.544Z,21.40
2022-10-08T12:45:43.545Z,21.40
2022-10-08T12:48:16.974Z,21.40
2022-10-08T12:50:53.022Z,21.50
2022-10-08T12:53:21.640Z,21.50
2022-10-08T12:55:52.505Z,21.60
2022-10-08T12:58:24.930Z,21.50
2022-10-08T13:00:55.459Z,21.50
2022-10-08T13:03:25.434Z,21.50
2022-10-08T13:05:55.337Z,21.40
2022-10-08T13:08:35.166Z,21.30
2022-10-08T13:11:05.677Z,21.30
2022-10-08T13:13:44.944Z,21.20
2022-10-08T13:16:15.101Z,21.20
2022-10-08T13:18:45.729Z,21.10
2022-10-08T13:21:37.022Z,21.10
2022-10-08T13:24:46.932Z,21.20
2022-10-08T13:27:26.374Z,21.20
2022-10-08T13:29:56.695Z,21.20
2022-10-08T13:32:26.695Z,21.20
2022-10-08T13:34:56.616Z,21.30
2022-10-08T13:37:33.851Z,21.30
2022-10-08T13:40:04.797Z,21.30
2022-10-08T13:42:35.759Z,21.20
2022-10-08T13:45:13.539Z,21.20
2022-10-08T13:47:41.936Z,21.20
2022-10-08T13:50:10.779Z,21.10
2022-10-08T13:52:44.387Z,21.10
2022-10-08T13:55:22.057Z,21.00
2022-10-08T13:57:50.758Z,20.90
2022-10-08T14:00:21.323Z,20.90
2022-10-08T14:02:51.701Z,20.80
2022-10-08T14:05:20.325Z,20.70
2022-10-08T14:07:50.342Z,20.70
2022-10-08T14:10:19.355Z,20.70
2022-10-08T14:12:47.858Z,20.70
2022-10-08T14:15:17.522Z,20.60
2022-10-08T14:17:49.487Z,20.50
2022-10-08T14:20:18.252Z,20.50
2022-10-08T14:22:46.806Z,20.40
2022-10-08T14:25:18.180Z,20.40
2022-10-08T14:27:47.250Z,20.40
2022-10-08T14:30:16.998Z,20.40
2022-10-08T14:32:46.974Z,20.30
2022-10-08T14:35:15.442Z,20.30
2022-10-08T14:37:43.931Z,20.30
2022-10-08T14:40:16.775Z,20.30
2022-10-08T14:42:45.408Z,20.30
2022-10-08T14:45:14.140Z,20.20
2022-10-08T14:47:42.543Z,20.20
2022-10-08T14:50:13.554Z,20.20
2022-10-08T14:52:44.525Z,20.10
2022-10-08T14:55:14.220Z,20.10
2022-10-08T14:57:42.733Z,20.10
2022-10-08T15:00:13.243Z,20.10
2022-10-08T15:02:41.782Z,20.10
2022-10-08T15:05:10.501Z,20.10
2022-10-08T15:07:40.292Z,20.00
2022-10-08T15:10:09.907Z,20.00
2022-10-08T15:12:38.481Z,19.90
2022-10-08T15:15:07.900Z,19.90
2022-10-08T15:17:36.325Z,19.90
2022-10-08T15:20:05.427Z,19.90
2022-10-08T15:22:33.913Z,19.80
2022-10-08T15:25:03.864Z,19.80
2022-10-08T15:27:32.347Z,19.80
2022-10-08T15:30:00.770Z,19.80
2022-10-08T15:32:30.649Z,19.70
2022-10-08T15:34:59.262Z,19.60
2022-10-08T15:37:27.687Z,19.50
2022-10-08T15:39:56.137Z,19.50
2022-10-08T15:42:26.131Z,19.40
2022-10-08T15:44:55.207Z,19.40
2022-10-08T15:47:23.671Z,19.40
2022-10-08T15:49:52.091Z,19.30
2022-10-08T15:52:22.311Z,19.30
2022-10-08T15:54:50.790Z,19.20
2022-10-08T15:57:19.612Z,19.20
2022-10-08T15:59:49.518Z,19.10
2022-10-08T16:02:18.657Z,19.10
2022-10-08T16:04:48.191Z,19.00
2022-10-08T16:07:16.969Z,19.00
2022-10-08T16:09:45.407Z,18.90
2022-10-08T16:12:13.783Z,18.90
2022-10-08T16:14:42.165Z,18.80
2022-10-08T16:17:12.033Z,18.80
2022-10-08T16:19:40.547Z,18.80
2022-10-08T16:22:08.988Z,18.70
2022-10-08T16:24:37.510Z,18.70
2022-10-08T16:27:05.971Z,18.60
2022-10-08T16:29:34.382Z,18.50
2022-10-08T16:32:03.039Z,18.50
2022-10-08T16:34:33.126Z,18.40
2022-10-08T16:37:01.965Z,18.40
2022-10-08T16:39:30.392Z,18.40
2022-10-08T16:41:58.824Z,18.30
2022-10-08T16:44:27.328Z,18.30
2022-10-08T16:46:55.786Z,18.20
2022-10-08T16:49:26.431Z,18.10
2022-10-08T16:51:59.142Z,18.00
2022-10-08T16:54:28.362Z,18.00
2022-10-08T16:56:56.978Z,17.90
2022-10-08T16:59:27.274Z,17.90
2022-10-08T17:01:57.396Z,17.80
2022-10-08T17:04:27.731Z,17.70
2022-10-08T17:06:57.950Z,17.70
2022-10-08T17:09:26.400Z,17.70
2022-10-08T17:11:54.810Z,17.60
2022-10-08T17:14:23.284Z,17.60
2022-10-08T17:16:51.795Z,17.50
2022-10-08T17:19:20.665Z,17.50
2022-10-08T17:21:49.074Z,17.50
2022-10-08T17:24:18.836Z,17.50
2022-10-08T17:26:47.352Z,17.30
2022-10-08T17:29:15.854Z,17.20
2022-10-08T17:31:44.612Z,17.20
2022-10-08T17:34:13.227Z,17.30
2022-10-08T17:36:44.136Z,17.20
2022-10-08T17:39:14.864Z,17.20
2022-10-08T17:41:45.085Z,17.20
2022-10-08T17:44:14.039Z,17.10
2022-10-08T17:46:45.683Z,17.10
2022-10-08T17:49:14.768Z,17.10
2022-10-08T17:51:43.260Z,17.00
2022-10-08T17:54:13.572Z,17.00
2022-10-08T17:56:42.193Z,17.00
2022-10-08T17:59:15.137Z,17.00
2022-10-08T18:01:45.322Z,17.00
2022-10-08T18:04:15.543Z,17.00
2022-10-08T18:06:46.103Z,16.90
2022-10-08T18:09:16.252Z,16.90
2022-10-08T18:11:46.454Z,16.90
2022-10-08T18:14:17.340Z,16.90
2022-10-08T18:16:48.416Z,16.90
2022-10-08T18:19:18.233Z,16.90
2022-10-08T18:21:47.084Z,16.90
2022-10-08T18:24:16.090Z,16.90
2022-10-08T18:26:45.078Z,16.80
2022-10-08T18:29:15.621Z,16.80
2022-10-08T18:31:46.541Z,16.70
2022-10-08T18:34:17.244Z,16.70
2022-10-08T18:36:46.122Z,16.70
2022-10-08T18:39:17.095Z,16.60
2022-10-08T18:41:46.865Z,16.60
2022-10-08T18:44:18.892Z,16.60
2022-10-08T18:46:47.615Z,16.60
2022-10-08T18:49:17.991Z,16.60
2022-10-08T18:51:46.619Z,16.60
2022-10-08T18:54:15.208Z,16.50
2022-10-08T18:56:43.675Z,16.50
2022-10-08T18:59:13.730Z,16.40
2022-10-08T19:01:45.188Z,16.40
2022-10-08T19:04:15.061Z,16.40
2022-10-08T19:06:44.900Z,16.30
2022-10-08T19:09:13.693Z,16.30
2022-10-08T19:11:45.198Z,16.30
2022-10-08T19:14:15.907Z,16.20
2022-10-08T19:16:45.984Z,16.20
2022-10-08T19:19:16.201Z,16.20
2022-10-08T19:21:45.323Z,16.10
2022-10-08T19:24:17.240Z,16.10
2022-10-08T19:26:46.828Z,16.10
2022-10-08T19:29:17.139Z,16.00
2022-10-08T19:31:48.589Z,16.00
2022-10-08T19:34:18.538Z,15.90
2022-10-08T19:36:47.447Z,15.90
2022-10-08T19:39:20.429Z,15.80
2022-10-08T19:41:49.508Z,15.80
2022-10-08T19:44:18.318Z,15.70
2022-10-08T19:46:48.863Z,15.60
2022-10-08T19:49:18.151Z,15.50
2022-10-08T19:51:46.657Z,15.40
2022-10-08T19:54:17.366Z,15.40
2022-10-08T19:56:45.891Z,15.40
2022-10-08T19:59:14.718Z,15.40
2022-10-08T20:01:44.752Z,15.40
2022-10-08T20:04:16.722Z,15.40
2022-10-08T20:06:45.253Z,15.50
2022-10-08T20:09:14.783Z,15.50
2022-10-08T20:11:44.015Z,15.40
2022-10-08T20:14:12.918Z,15.40
2022-10-08T20:16:42.950Z,15.40
2022-10-08T20:19:17.139Z,15.40
2022-10-08T20:21:46.080Z,15.30
2022-10-08T20:24:14.838Z,15.30
2022-10-08T20:26:44.387Z,15.30
2022-10-08T20:29:14.697Z,15.40
2022-10-08T20:31:44.132Z,15.40
2022-10-08T20:34:17.468Z,15.40
2022-10-08T20:36:46.698Z,15.40
2022-10-08T20:39:16.686Z,15.40
2022-10-08T20:41:45.664Z,15.40
2022-10-08T20:44:14.268Z,15.30
2022-10-08T20:46:42.877Z,15.30
2022-10-08T20:49:12.318Z,15.20
2022-10-08T20:51:43.296Z,15.20
2022-10-08T20:54:13.588Z,15.20
2022-10-08T20:56:42.854Z,15.20
2022-10-08T20:59:11.677Z,15.20
2022-10-08T21:01:40.857Z,15.10
2022-10-08T21:04:09.755Z,15.00
2022-10-08T21:06:40.277Z,15.00
2022-10-08T21:09:10.215Z,15.00
2022-10-08T21:11:39.442Z,14.90
2022-10-08T21:14:09.236Z,14.90
2022-10-08T21:16:39.609Z,14.90
2022-10-08T21:19:12.321Z,14.90
2022-10-08T21:21:41.483Z,14.90
2022-10-08T21:24:11.507Z,15.00
2022-10-08T21:26:41.899Z,14.90
2022-10-08T21:29:12.686Z,14.90
2022-10-08T21:31:42.368Z,15.00
2022-10-08T21:34:12.593Z,15.00
2022-10-08T21:36:42.022Z,15.00
2022-10-08T21:39:16.296Z,15.00
2022-10-08T21:41:45.031Z,15.10
2022-10-08T21:44:13.660Z,15.10
2022-10-08T21:46:43.501Z,15.10
2022-10-08T21:49:14.058Z,15.10
2022-10-08T21:51:42.829Z,15.10
2022-10-08T21:54:13.239Z,15.10
2022-10-08T21:56:42.966Z,15.10
2022-10-08T21:59:13.887Z,15.00
2022-10-08T22:01:43.849Z,15.10
2022-10-08T22:04:14.662Z,15.10
2022-10-08T22:06:45.063Z,15.10
2022-10-08T22:09:16.454Z,15.10
2022-10-08T22:11:45.053Z,15.10
2022-10-08T22:14:13.560Z,15.10
2022-10-08T22:16:43.504Z,15.10
2022-10-08T22:19:12.374Z,15.20
2022-10-08T22:21:40.990Z,15.20
2022-10-08T22:24:09.844Z,15.30
2022-10-08T22:26:41.727Z,15.30
2022-10-08T22:29:10.484Z,15.40
2022-10-08T22:31:39.585Z,15.40
2022-10-08T22:34:08.120Z,15.40
2022-10-08T22:36:40.024Z,15.30
2022-10-08T22:39:08.973Z,15.30
2022-10-08T22:41:39.155Z,15.20
2022-10-08T22:44:07.660Z,15.20
2022-10-08T22:46:37.669Z,15.20
2022-10-08T22:49:08.287Z,15.20
2022-10-08T22:51:37.790Z,15.20
2022-10-08T22:54:06.539Z,15.10
2022-10-08T22:56:35.136Z,15.20
2022-10-08T22:59:05.227Z,15.20
2022-10-08T23:01:33.762Z,15.20
2022-10-08T23:04:02.187Z,15.20
2022-10-08T23:06:32.592Z,15.20
2022-10-08T23:09:02.086Z,15.20
2022-10-08T23:11:31.634Z,15.20
2022-10-08T23:14:01.459Z,15.30
2022-10-08T23:16:33.660Z,15.20
2022-10-08T23:19:04.126Z,15.20
2022-10-08T23:21:32.848Z,15.20
2022-10-08T23:24:01.308Z,15.20
2022-10-08T23:26:30.059Z,15.20
2022-10-08T23:29:00.522Z,15.20
2022-10-08T23:31:32.334Z,15.30
2022-10-08T23:34:01.379Z,15.30
2022-10-08T23:36:30.880Z,15.20
2022-10-08T23:38:59.716Z,15.20
2022-10-08T23:41:29.028Z,15.20
2022-10-08T23:43:58.466Z,15.20
2022-10-08T23:46:28.349Z,15.10
2022-10-08T23:48:58.753Z,15.10
2022-10-08T23:51:29.079Z,15.20
2022-10-08T23:53:57.579Z,15.20
2022-10-08T23:56:26.205Z,15.20
2022-10-08T23:58:54.677Z,15.30
